Pagrindinis puslapis
METAR-TAF:

METAR-TAF

Oro uostai :

Sivasas, Turkija

platuma: 39-45N, ilguma: 037-01E, Aukštis: 1285 m

Dabartinis oras

Ataskaita buvo paskelbta 48 minutes, ne 03:50 UTC
Vėjas 4 kt iš Rytų
Temperatūra -2°C
Drėgmė 93%
Slėgis 1016 hPa
Matomumas 10 km arba daugiau
Su prošvaistėmis ne aukštis 3000 ft

METAR: LTAR 100350Z 08004KT 9999 BKN030 M02/M03 Q1016

Laikas: 07:38 (04:38 UTC)

Prognozė

Ataskaita buvo paskelbta 2 valandos ir 58 minutes, ne 01:40 UTC
Prognozė galioja nuo 10 metu 03 UTC su 10 metu 12 UTC
Vėjas 5 kt iš Rytų/Pietryčių
Matomumas: 8000 m
Išsisklaidę debesys ne aukštis 4000 ft
Su prošvaistėmis ne aukštis 8000 ft
Laikinai
nuo 10 metu 03 UTC su 10 metu 07 UTC
Matomumas: 1200 m
Išsisklaidę debesys ne aukštis 1000 ft
Su prošvaistėmis ne aukštis 2000 ft
Rūkas lopais

TAF: LTAR 100140Z 1003/1012 11005KT 8000 SCT040 BKN080 TEMPO 1003/1007 1200 BCFG SCT010 BKN020

Orai ataskaitas ir orų prognozės (METAR, TAF).

turimą stotys yra geltonos ir raudonos taškus žemėlapyje.

Perkelti pele per norėdami pamatyti stoties vardą.

Tada spustelėkite, norėdami matyti oro stebėjimo ir prognozės.

Norėdami pakeisti žemėlapį: spustelėkite ant žalios mygtukų su juodo kryžiaus žemyn,; žalią mygtuką su brūkšneliu, jei norite nutolinti; arba žalių rodyklių gretimoms žemėlapius.


METAR-TAF: